sensor_id;sensor_type;location;lat;lon;timestamp;P1;durP1;ratioP1;P2;durP2;ratioP2
70216;SDS011;65567;55.684;37.570;2023-05-16T00:00:52;19.80;;;4.07;;
70216;SDS011;65567;55.684;37.570;2023-05-16T00:03:18;12.25;;;4.25;;
70216;SDS011;65567;55.684;37.570;2023-05-16T00:05:45;11.52;;;4.28;;
70216;SDS011;65567;55.684;37.570;2023-05-16T00:08:11;18.92;;;4.75;;
70216;SDS011;65567;55.684;37.570;2023-05-16T00:10:37;13.52;;;4.38;;
70216;SDS011;65567;55.684;37.570;2023-05-16T00:13:02;12.30;;;3.90;;
70216;SDS011;65567;55.684;37.570;2023-05-16T00:15:29;20.08;;;6.03;;
70216;SDS011;65567;55.684;37.570;2023-05-16T00:17:55;17.15;;;6.05;;
70216;SDS011;65567;55.684;37.570;2023-05-16T00:20:24;61.20;;;20.83;;
70216;SDS011;65567;55.684;37.570;2023-05-16T00:22:52;72.25;;;26.25;;
70216;SDS011;65567;55.684;37.570;2023-05-16T00:25:18;84.13;;;29.65;;
70216;SDS011;65567;55.684;37.570;2023-05-16T00:27:44;51.42;;;20.08;;
70216;SDS011;65567;55.684;37.570;2023-05-16T00:30:10;81.25;;;37.22;;
70216;SDS011;65567;55.684;37.570;2023-05-16T00:32:37;93.90;;;42.47;;
70216;SDS011;65567;55.684;37.570;2023-05-16T00:35:02;109.80;;;43.83;;
70216;SDS011;65567;55.684;37.570;2023-05-16T00:37:29;93.85;;;42.08;;
70216;SDS011;65567;55.684;37.570;2023-05-16T00:39:54;110.53;;;47.03;;
70216;SDS011;65567;55.684;37.570;2023-05-16T00:42:20;147.70;;;56.45;;
70216;SDS011;65567;55.684;37.570;2023-05-16T00:44:46;108.80;;;46.10;;
70216;SDS011;65567;55.684;37.570;2023-05-16T00:47:12;66.03;;;29.83;;
70216;SDS011;65567;55.684;37.570;2023-05-16T00:49:38;25.75;;;12.13;;
70216;SDS011;65567;55.684;37.570;2023-05-16T00:52:06;24.55;;;10.40;;
70216;SDS011;65567;55.684;37.570;2023-05-16T00:54:31;13.75;;;6.72;;
70216;SDS011;65567;55.684;37.570;2023-05-16T00:56:58;15.13;;;6.13;;
70216;SDS011;65567;55.684;37.570;2023-05-16T00:59:24;15.02;;;5.30;;
70216;SDS011;65567;55.684;37.570;2023-05-16T01:01:50;17.40;;;5.93;;
70216;SDS011;65567;55.684;37.570;2023-05-16T01:04:17;16.77;;;6.65;;
70216;SDS011;65567;55.684;37.570;2023-05-16T01:06:46;17.40;;;6.88;;
70216;SDS011;65567;55.684;37.570;2023-05-16T01:09:12;14.82;;;5.38;;
70216;SDS011;65567;55.684;37.570;2023-05-16T01:17:11;10.93;;;4.40;;
70216;SDS011;65567;55.684;37.570;2023-05-16T01:27:18;17.52;;;5.22;;
70216;SDS011;65567;55.684;37.570;2023-05-16T01:29:45;16.52;;;5.50;;
70216;SDS011;65567;55.684;37.570;2023-05-16T01:32:11;14.30;;;5.15;;
70216;SDS011;65567;55.684;37.570;2023-05-16T01:34:38;14.27;;;5.68;;
70216;SDS011;65567;55.684;37.570;2023-05-16T01:39:46;14.05;;;6.13;;
70216;SDS011;65567;55.684;37.570;2023-05-16T01:42:20;25.42;;;8.95;;
70216;SDS011;65567;55.684;37.570;2023-05-16T01:47:37;20.77;;;8.23;;
70216;SDS011;65567;55.684;37.570;2023-05-16T01:55:10;24.33;;;9.85;;
70216;SDS011;65567;55.684;37.570;2023-05-16T01:57:40;25.80;;;10.85;;
70216;SDS011;65567;55.684;37.570;2023-05-16T02:00:07;26.40;;;9.60;;
70216;SDS011;65567;55.684;37.570;2023-05-16T02:02:33;18.40;;;9.27;;
70216;SDS011;65567;55.684;37.570;2023-05-16T02:04:59;21.42;;;8.90;;
70216;SDS011;65567;55.684;37.570;2023-05-16T02:07:25;21.13;;;9.02;;
70216;SDS011;65567;55.684;37.570;2023-05-16T02:09:51;21.25;;;9.65;;
70216;SDS011;65567;55.684;37.570;2023-05-16T02:12:17;27.83;;;8.52;;
70216;SDS011;65567;55.684;37.570;2023-05-16T02:14:43;19.80;;;9.00;;
70216;SDS011;65567;55.684;37.570;2023-05-16T02:17:09;20.80;;;8.88;;
70216;SDS011;65567;55.684;37.570;2023-05-16T02:19:34;22.63;;;9.43;;
70216;SDS011;65567;55.684;37.570;2023-05-16T02:22:00;17.95;;;7.63;;
70216;SDS011;65567;55.684;37.570;2023-05-16T02:24:26;24.00;;;8.85;;
70216;SDS011;65567;55.684;37.570;2023-05-16T02:26:52;21.15;;;8.73;;
70216;SDS011;65567;55.684;37.570;2023-05-16T02:29:18;21.50;;;10.10;;
70216;SDS011;65567;55.684;37.570;2023-05-16T02:31:43;18.48;;;8.73;;
70216;SDS011;65567;55.684;37.570;2023-05-16T02:34:09;20.67;;;8.30;;
70216;SDS011;65567;55.684;37.570;2023-05-16T02:36:35;19.80;;;8.30;;
70216;SDS011;65567;55.684;37.570;2023-05-16T02:39:01;21.05;;;7.90;;
70216;SDS011;65567;55.684;37.570;2023-05-16T02:41:28;15.38;;;9.20;;
70216;SDS011;65567;55.684;37.570;2023-05-16T02:43:54;21.30;;;8.50;;
70216;SDS011;65567;55.684;37.570;2023-05-16T02:46:20;25.80;;;8.93;;
70216;SDS011;65567;55.684;37.570;2023-05-16T02:48:46;27.52;;;9.30;;
70216;SDS011;65567;55.684;37.570;2023-05-16T02:51:12;22.48;;;8.68;;
70216;SDS011;65567;55.684;37.570;2023-05-16T02:53:38;20.75;;;8.43;;
70216;SDS011;65567;55.684;37.570;2023-05-16T02:56:04;20.90;;;8.48;;
70216;SDS011;65567;55.684;37.570;2023-05-16T02:58:31;20.15;;;8.30;;
70216;SDS011;65567;55.684;37.570;2023-05-16T03:00:57;16.48;;;8.13;;
70216;SDS011;65567;55.684;37.570;2023-05-16T03:03:23;19.92;;;8.05;;
70216;SDS011;65567;55.684;37.570;2023-05-16T03:05:49;16.75;;;8.98;;
70216;SDS011;65567;55.684;37.570;2023-05-16T03:08:16;16.85;;;8.05;;
70216;SDS011;65567;55.684;37.570;2023-05-16T03:10:42;14.95;;;7.25;;
70216;SDS011;65567;55.684;37.570;2023-05-16T03:13:08;12.63;;;6.85;;
70216;SDS011;65567;55.684;37.570;2023-05-16T03:15:33;14.68;;;7.05;;
70216;SDS011;65567;55.684;37.570;2023-05-16T03:17:59;15.57;;;7.45;;
70216;SDS011;65567;55.684;37.570;2023-05-16T03:20:25;12.73;;;6.28;;
70216;SDS011;65567;55.684;37.570;2023-05-16T03:22:51;14.23;;;6.53;;
70216;SDS011;65567;55.684;37.570;2023-05-16T03:25:16;10.38;;;3.88;;
70216;SDS011;65567;55.684;37.570;2023-05-16T03:27:42;10.15;;;4.38;;
70216;SDS011;65567;55.684;37.570;2023-05-16T03:30:08;8.68;;;4.80;;
70216;SDS011;65567;55.684;37.570;2023-05-16T03:32:36;10.77;;;3.75;;
70216;SDS011;65567;55.684;37.570;2023-05-16T03:35:02;9.77;;;3.45;;
70216;SDS011;65567;55.684;37.570;2023-05-16T03:37:28;7.18;;;3.50;;
70216;SDS011;65567;55.684;37.570;2023-05-16T03:39:54;7.28;;;3.78;;
70216;SDS011;65567;55.684;37.570;2023-05-16T03:42:20;6.18;;;2.72;;
70216;SDS011;65567;55.684;37.570;2023-05-16T03:44:45;9.00;;;3.50;;
70216;SDS011;65567;55.684;37.570;2023-05-16T03:47:11;10.52;;;3.17;;
70216;SDS011;65567;55.684;37.570;2023-05-16T03:49:37;5.38;;;2.38;;
70216;SDS011;65567;55.684;37.570;2023-05-16T03:52:03;5.68;;;3.15;;
70216;SDS011;65567;55.684;37.570;2023-05-16T03:54:29;8.63;;;2.97;;
70216;SDS011;65567;55.684;37.570;2023-05-16T03:56:56;8.00;;;2.72;;
70216;SDS011;65567;55.684;37.570;2023-05-16T03:59:21;10.75;;;3.40;;
70216;SDS011;65567;55.684;37.570;2023-05-16T04:01:47;7.20;;;2.53;;
70216;SDS011;65567;55.684;37.570;2023-05-16T04:04:14;8.32;;;2.70;;
70216;SDS011;65567;55.684;37.570;2023-05-16T04:06:40;6.20;;;2.50;;
70216;SDS011;65567;55.684;37.570;2023-05-16T04:09:05;6.38;;;2.50;;
70216;SDS011;65567;55.684;37.570;2023-05-16T04:11:31;7.82;;;3.13;;
70216;SDS011;65567;55.684;37.570;2023-05-16T04:13:58;6.60;;;3.00;;
70216;SDS011;65567;55.684;37.570;2023-05-16T04:16:25;8.90;;;3.30;;
70216;SDS011;65567;55.684;37.570;2023-05-16T04:18:51;11.63;;;2.90;;
70216;SDS011;65567;55.684;37.570;2023-05-16T04:21:17;10.38;;;3.28;;
70216;SDS011;65567;55.684;37.570;2023-05-16T04:23:43;7.13;;;2.80;;
70216;SDS011;65567;55.684;37.570;2023-05-16T04:26:09;6.25;;;2.67;;
70216;SDS011;65567;55.684;37.570;2023-05-16T04:28:34;8.27;;;3.35;;
70216;SDS011;65567;55.684;37.570;2023-05-16T04:31:00;8.75;;;3.40;;
70216;SDS011;65567;55.684;37.570;2023-05-16T04:33:26;8.50;;;3.15;;
70216;SDS011;65567;55.684;37.570;2023-05-16T04:35:52;5.28;;;2.95;;
70216;SDS011;65567;55.684;37.570;2023-05-16T04:38:19;9.43;;;2.80;;
70216;SDS011;65567;55.684;37.570;2023-05-16T04:40:45;9.80;;;3.33;;
70216;SDS011;65567;55.684;37.570;2023-05-16T04:43:11;8.70;;;3.25;;
70216;SDS011;65567;55.684;37.570;2023-05-16T04:45:36;10.98;;;2.80;;
70216;SDS011;65567;55.684;37.570;2023-05-16T04:48:02;6.68;;;2.92;;
70216;SDS011;65567;55.684;37.570;2023-05-16T04:50:28;13.13;;;3.00;;
70216;SDS011;65567;55.684;37.570;2023-05-16T04:52:54;7.30;;;2.97;;
70216;SDS011;65567;55.684;37.570;2023-05-16T04:55:20;9.40;;;2.47;;
70216;SDS011;65567;55.684;37.570;2023-05-16T04:57:45;8.93;;;2.70;;
70216;SDS011;65567;55.684;37.570;2023-05-16T05:00:11;7.47;;;2.45;;
70216;SDS011;65567;55.684;37.570;2023-05-16T05:02:38;10.40;;;2.50;;
70216;SDS011;65567;55.684;37.570;2023-05-16T05:05:04;4.43;;;2.08;;
70216;SDS011;65567;55.684;37.570;2023-05-16T05:07:33;10.05;;;2.75;;
70216;SDS011;65567;55.684;37.570;2023-05-16T05:09:59;14.38;;;3.47;;
70216;SDS011;65567;55.684;37.570;2023-05-16T05:12:25;9.38;;;2.30;;
70216;SDS011;65567;55.684;37.570;2023-05-16T05:14:52;12.95;;;3.40;;
70216;SDS011;65567;55.684;37.570;2023-05-16T05:17:18;7.82;;;2.80;;
70216;SDS011;65567;55.684;37.570;2023-05-16T05:19:45;5.97;;;2.25;;
70216;SDS011;65567;55.684;37.570;2023-05-16T05:22:12;12.55;;;2.92;;
70216;SDS011;65567;55.684;37.570;2023-05-16T05:24:38;7.47;;;2.50;;
70216;SDS011;65567;55.684;37.570;2023-05-16T05:27:04;12.93;;;2.63;;
70216;SDS011;65567;55.684;37.570;2023-05-16T05:29:30;16.65;;;2.90;;
70216;SDS011;65567;55.684;37.570;2023-05-16T05:31:56;5.32;;;2.17;;
70216;SDS011;65567;55.684;37.570;2023-05-16T05:34:22;7.63;;;1.90;;
70216;SDS011;65567;55.684;37.570;2023-05-16T05:36:47;8.88;;;1.90;;
70216;SDS011;65567;55.684;37.570;2023-05-16T05:39:13;5.10;;;1.17;;
70216;SDS011;65567;55.684;37.570;2023-05-16T05:41:39;4.22;;;1.90;;
70216;SDS011;65567;55.684;37.570;2023-05-16T05:44:05;10.40;;;1.90;;
70216;SDS011;65567;55.684;37.570;2023-05-16T05:46:31;2.88;;;1.10;;
70216;SDS011;65567;55.684;37.570;2023-05-16T05:48:58;5.80;;;1.77;;
70216;SDS011;65567;55.684;37.570;2023-05-16T05:51:24;8.07;;;1.90;;
70216;SDS011;65567;55.684;37.570;2023-05-16T05:53:50;10.48;;;1.52;;
70216;SDS011;65567;55.684;37.570;2023-05-16T05:56:17;7.70;;;1.48;;
70216;SDS011;65567;55.684;37.570;2023-05-16T05:58:42;17.92;;;2.28;;
70216;SDS011;65567;55.684;37.570;2023-05-16T06:01:09;7.78;;;1.52;;
70216;SDS011;65567;55.684;37.570;2023-05-16T06:03:35;9.50;;;3.50;;
70216;SDS011;65567;55.684;37.570;2023-05-16T06:06:02;6.25;;;1.60;;
70216;SDS011;65567;55.684;37.570;2023-05-16T06:08:28;5.75;;;1.45;;
70216;SDS011;65567;55.684;37.570;2023-05-16T06:10:54;6.78;;;1.70;;
70216;SDS011;65567;55.684;37.570;2023-05-16T06:13:20;9.30;;;1.73;;
70216;SDS011;65567;55.684;37.570;2023-05-16T06:15:52;13.98;;;1.85;;
70216;SDS011;65567;55.684;37.570;2023-05-16T06:18:19;10.30;;;1.52;;
70216;SDS011;65567;55.684;37.570;2023-05-16T06:20:45;39.58;;;4.63;;
70216;SDS011;65567;55.684;37.570;2023-05-16T06:23:11;16.33;;;2.28;;
70216;SDS011;65567;55.684;37.570;2023-05-16T06:25:37;9.45;;;1.67;;
70216;SDS011;65567;55.684;37.570;2023-05-16T06:28:03;5.30;;;1.17;;
70216;SDS011;65567;55.684;37.570;2023-05-16T06:30:29;4.28;;;1.00;;
70216;SDS011;65567;55.684;37.570;2023-05-16T06:32:55;4.07;;;1.10;;
70216;SDS011;65567;55.684;37.570;2023-05-16T06:35:21;3.97;;;1.10;;
70216;SDS011;65567;55.684;37.570;2023-05-16T06:37:47;6.47;;;1.85;;
70216;SDS011;65567;55.684;37.570;2023-05-16T06:40:13;3.67;;;1.20;;
70216;SDS011;65567;55.684;37.570;2023-05-16T06:42:39;6.75;;;1.40;;
70216;SDS011;65567;55.684;37.570;2023-05-16T06:45:05;7.28;;;1.73;;
70216;SDS011;65567;55.684;37.570;2023-05-16T06:47:31;5.38;;;1.25;;
70216;SDS011;65567;55.684;37.570;2023-05-16T06:49:57;9.38;;;1.38;;
70216;SDS011;65567;55.684;37.570;2023-05-16T06:52:23;9.55;;;1.50;;
70216;SDS011;65567;55.684;37.570;2023-05-16T06:54:49;5.38;;;1.10;;
70216;SDS011;65567;55.684;37.570;2023-05-16T06:57:16;4.40;;;1.10;;
70216;SDS011;65567;55.684;37.570;2023-05-16T06:59:41;8.45;;;1.17;;
70216;SDS011;65567;55.684;37.570;2023-05-16T07:02:08;4.75;;;1.25;;
70216;SDS011;65567;55.684;37.570;2023-05-16T07:04:34;13.65;;;2.15;;
70216;SDS011;65567;55.684;37.570;2023-05-16T07:07:02;7.72;;;1.48;;
70216;SDS011;65567;55.684;37.570;2023-05-16T07:09:29;5.22;;;1.17;;
70216;SDS011;65567;55.684;37.570;2023-05-16T07:11:55;13.38;;;1.95;;
70216;SDS011;65567;55.684;37.570;2023-05-16T07:14:21;9.93;;;1.45;;
70216;SDS011;65567;55.684;37.570;2023-05-16T07:16:47;2.85;;;1.05;;
70216;SDS011;65567;55.684;37.570;2023-05-16T07:19:12;4.60;;;0.90;;
70216;SDS011;65567;55.684;37.570;2023-05-16T07:21:39;9.98;;;1.35;;
70216;SDS011;65567;55.684;37.570;2023-05-16T07:24:04;11.60;;;2.50;;
70216;SDS011;65567;55.684;37.570;2023-05-16T07:26:32;4.38;;;1.27;;
70216;SDS011;65567;55.684;37.570;2023-05-16T07:28:57;7.57;;;1.23;;
70216;SDS011;65567;55.684;37.570;2023-05-16T07:31:23;5.38;;;1.20;;
70216;SDS011;65567;55.684;37.570;2023-05-16T07:33:49;12.88;;;1.70;;
70216;SDS011;65567;55.684;37.570;2023-05-16T07:36:15;5.95;;;1.10;;
70216;SDS011;65567;55.684;37.570;2023-05-16T07:38:41;3.13;;;0.90;;
70216;SDS011;65567;55.684;37.570;2023-05-16T07:41:07;5.35;;;1.23;;
70216;SDS011;65567;55.684;37.570;2023-05-16T07:43:35;1.27;;;0.60;;
70216;SDS011;65567;55.684;37.570;2023-05-16T07:46:01;2.72;;;0.70;;
70216;SDS011;65567;55.684;37.570;2023-05-16T07:48:27;4.80;;;0.80;;
70216;SDS011;65567;55.684;37.570;2023-05-16T07:50:53;6.22;;;0.90;;
70216;SDS011;65567;55.684;37.570;2023-05-16T07:53:19;2.28;;;0.60;;
70216;SDS011;65567;55.684;37.570;2023-05-16T07:55:46;5.95;;;0.80;;
70216;SDS011;65567;55.684;37.570;2023-05-16T07:58:12;4.22;;;0.70;;
70216;SDS011;65567;55.684;37.570;2023-05-16T08:00:39;2.38;;;0.63;;
70216;SDS011;65567;55.684;37.570;2023-05-16T08:03:04;3.45;;;0.70;;
70216;SDS011;65567;55.684;37.570;2023-05-16T08:05:31;3.03;;;0.68;;
70216;SDS011;65567;55.684;37.570;2023-05-16T08:07:56;4.15;;;1.00;;
70216;SDS011;65567;55.684;37.570;2023-05-16T08:10:22;4.65;;;0.80;;
70216;SDS011;65567;55.684;37.570;2023-05-16T08:12:48;3.05;;;1.40;;
70216;SDS011;65567;55.684;37.570;2023-05-16T08:15:14;3.95;;;0.80;;
70216;SDS011;65567;55.684;37.570;2023-05-16T08:17:40;4.60;;;0.90;;
70216;SDS011;65567;55.684;37.570;2023-05-16T08:20:06;2.70;;;0.80;;
70216;SDS011;65567;55.684;37.570;2023-05-16T08:22:32;5.15;;;0.80;;
70216;SDS011;65567;55.684;37.570;2023-05-16T08:24:58;4.05;;;1.00;;
70216;SDS011;65567;55.684;37.570;2023-05-16T08:27:27;5.22;;;1.20;;
70216;SDS011;65567;55.684;37.570;2023-05-16T08:29:53;1.80;;;1.05;;
70216;SDS011;65567;55.684;37.570;2023-05-16T08:32:20;3.17;;;0.88;;
70216;SDS011;65567;55.684;37.570;2023-05-16T08:34:46;3.38;;;1.15;;
70216;SDS011;65567;55.684;37.570;2023-05-16T08:37:12;8.13;;;1.65;;
70216;SDS011;65567;55.684;37.570;2023-05-16T08:39:38;5.15;;;1.13;;
70216;SDS011;65567;55.684;37.570;2023-05-16T08:42:04;2.47;;;1.13;;
70216;SDS011;65567;55.684;37.570;2023-05-16T08:44:30;10.10;;;1.27;;
70216;SDS011;65567;55.684;37.570;2023-05-16T08:46:56;13.23;;;2.22;;
70216;SDS011;65567;55.684;37.570;2023-05-16T08:49:36;2.45;;;0.70;;
70216;SDS011;65567;55.684;37.570;2023-05-16T08:52:05;3.77;;;1.20;;
70216;SDS011;65567;55.684;37.570;2023-05-16T08:54:33;2.95;;;0.98;;
70216;SDS011;65567;55.684;37.570;2023-05-16T08:56:59;3.25;;;1.10;;
70216;SDS011;65567;55.684;37.570;2023-05-16T08:59:26;4.70;;;1.10;;
70216;SDS011;65567;55.684;37.570;2023-05-16T09:01:53;2.38;;;0.80;;
70216;SDS011;65567;55.684;37.570;2023-05-16T09:04:20;1.67;;;0.80;;
70216;SDS011;65567;55.684;37.570;2023-05-16T09:06:48;3.45;;;0.80;;
70216;SDS011;65567;55.684;37.570;2023-05-16T09:09:15;12.70;;;1.38;;
70216;SDS011;65567;55.684;37.570;2023-05-16T09:11:41;9.38;;;1.20;;
70216;SDS011;65567;55.684;37.570;2023-05-16T09:14:06;20.90;;;2.22;;
70216;SDS011;65567;55.684;37.570;2023-05-16T09:16:32;9.85;;;1.80;;
70216;SDS011;65567;55.684;37.570;2023-05-16T09:18:58;5.70;;;1.30;;
70216;SDS011;65567;55.684;37.570;2023-05-16T09:21:29;1.77;;;0.50;;
70216;SDS011;65567;55.684;37.570;2023-05-16T09:26:29;8.68;;;1.63;;
70216;SDS011;65567;55.684;37.570;2023-05-16T09:28:56;8.55;;;1.30;;
70216;SDS011;65567;55.684;37.570;2023-05-16T09:31:23;6.63;;;1.10;;
70216;SDS011;65567;55.684;37.570;2023-05-16T09:33:56;3.78;;;0.93;;
70216;SDS011;65567;55.684;37.570;2023-05-16T09:36:22;3.70;;;0.90;;
70216;SDS011;65567;55.684;37.570;2023-05-16T09:38:52;5.03;;;0.90;;
70216;SDS011;65567;55.684;37.570;2023-05-16T09:41:20;2.03;;;0.70;;
70216;SDS011;65567;55.684;37.570;2023-05-16T09:43:46;3.53;;;0.77;;
70216;SDS011;65567;55.684;37.570;2023-05-16T09:46:14;7.05;;;0.80;;
70216;SDS011;65567;55.684;37.570;2023-05-16T09:48:47;6.45;;;1.00;;
70216;SDS011;65567;55.684;37.570;2023-05-16T09:51:13;6.22;;;1.15;;
70216;SDS011;65567;55.684;37.570;2023-05-16T09:53:39;2.08;;;0.57;;
70216;SDS011;65567;55.684;37.570;2023-05-16T09:56:12;7.30;;;1.27;;
70216;SDS011;65567;55.684;37.570;2023-05-16T09:58:41;3.45;;;0.80;;
70216;SDS011;65567;55.684;37.570;2023-05-16T10:01:08;1.77;;;0.60;;
70216;SDS011;65567;55.684;37.570;2023-05-16T10:03:36;3.90;;;0.80;;
70216;SDS011;65567;55.684;37.570;2023-05-16T10:06:05;8.80;;;1.45;;
70216;SDS011;65567;55.684;37.570;2023-05-16T10:08:32;7.38;;;0.85;;
70216;SDS011;65567;55.684;37.570;2023-05-16T10:11:01;4.20;;;0.63;;
70216;SDS011;65567;55.684;37.570;2023-05-16T10:13:31;7.28;;;0.88;;
70216;SDS011;65567;55.684;37.570;2023-05-16T10:16:00;5.65;;;1.20;;
70216;SDS011;65567;55.684;37.570;2023-05-16T10:18:33;5.05;;;0.50;;
70216;SDS011;65567;55.684;37.570;2023-05-16T10:21:10;1.67;;;0.40;;
70216;SDS011;65567;55.684;37.570;2023-05-16T10:23:43;8.90;;;0.83;;
70216;SDS011;65567;55.684;37.570;2023-05-16T10:26:13;6.55;;;0.85;;
70216;SDS011;65567;55.684;37.570;2023-05-16T10:28:40;8.45;;;0.80;;
70216;SDS011;65567;55.684;37.570;2023-05-16T10:31:06;3.47;;;0.85;;
70216;SDS011;65567;55.684;37.570;2023-05-16T10:33:34;2.30;;;0.82;;
70216;SDS011;65567;55.684;37.570;2023-05-16T10:36:01;4.65;;;0.70;;
70216;SDS011;65567;55.684;37.570;2023-05-16T10:38:30;16.73;;;1.48;;
70216;SDS011;65567;55.684;37.570;2023-05-16T10:40:56;6.20;;;0.88;;
70216;SDS011;65567;55.684;37.570;2023-05-16T10:43:23;2.97;;;0.70;;
70216;SDS011;65567;55.684;37.570;2023-05-16T10:45:54;5.18;;;1.42;;
70216;SDS011;65567;55.684;37.570;2023-05-16T10:48:32;6.47;;;0.90;;
70216;SDS011;65567;55.684;37.570;2023-05-16T10:50:59;9.98;;;1.90;;
70216;SDS011;65567;55.684;37.570;2023-05-16T11:01:22;5.50;;;0.80;;
70216;SDS011;65567;55.684;37.570;2023-05-16T11:09:02;4.10;;;0.70;;
70216;SDS011;65567;55.684;37.570;2023-05-16T11:11:41;2.97;;;0.60;;
70216;SDS011;65567;55.684;37.570;2023-05-16T11:14:08;8.48;;;0.98;;
70216;SDS011;65567;55.684;37.570;2023-05-16T11:16:34;4.72;;;0.88;;
70216;SDS011;65567;55.684;37.570;2023-05-16T11:19:06;1.88;;;0.65;;
70216;SDS011;65567;55.684;37.570;2023-05-16T11:24:30;10.10;;;1.30;;
70216;SDS011;65567;55.684;37.570;2023-05-16T11:26:59;14.48;;;1.55;;
70216;SDS011;65567;55.684;37.570;2023-05-16T11:29:34;9.52;;;1.30;;
70216;SDS011;65567;55.684;37.570;2023-05-16T11:32:01;9.73;;;1.35;;
70216;SDS011;65567;55.684;37.570;2023-05-16T11:34:30;12.23;;;2.00;;
70216;SDS011;65567;55.684;37.570;2023-05-16T11:37:00;5.60;;;1.02;;
70216;SDS011;65567;55.684;37.570;2023-05-16T11:39:28;6.60;;;1.33;;
70216;SDS011;65567;55.684;37.570;2023-05-16T11:41:56;3.10;;;0.90;;
70216;SDS011;65567;55.684;37.570;2023-05-16T11:44:22;7.20;;;0.70;;
70216;SDS011;65567;55.684;37.570;2023-05-16T11:46:48;9.82;;;1.40;;
70216;SDS011;65567;55.684;37.570;2023-05-16T11:49:14;6.28;;;1.20;;
70216;SDS011;65567;55.684;37.570;2023-05-16T11:51:40;11.40;;;1.80;;
70216;SDS011;65567;55.684;37.570;2023-05-16T11:54:10;7.15;;;1.55;;
70216;SDS011;65567;55.684;37.570;2023-05-16T11:56:38;18.55;;;2.22;;
70216;SDS011;65567;55.684;37.570;2023-05-16T11:59:07;6.72;;;1.10;;
70216;SDS011;65567;55.684;37.570;2023-05-16T12:01:34;6.75;;;0.98;;
70216;SDS011;65567;55.684;37.570;2023-05-16T12:04:07;6.20;;;0.80;;
70216;SDS011;65567;55.684;37.570;2023-05-16T12:06:35;3.28;;;0.80;;
70216;SDS011;65567;55.684;37.570;2023-05-16T12:09:02;5.63;;;1.00;;
70216;SDS011;65567;55.684;37.570;2023-05-16T12:11:37;2.17;;;0.70;;
70216;SDS011;65567;55.684;37.570;2023-05-16T12:14:03;9.15;;;1.38;;
70216;SDS011;65567;55.684;37.570;2023-05-16T12:16:30;22.50;;;2.10;;
70216;SDS011;65567;55.684;37.570;2023-05-16T12:18:57;6.38;;;0.80;;
70216;SDS011;65567;55.684;37.570;2023-05-16T12:21:23;3.33;;;0.57;;
70216;SDS011;65567;55.684;37.570;2023-05-16T12:23:52;3.90;;;0.52;;
70216;SDS011;65567;55.684;37.570;2023-05-16T12:26:24;1.25;;;0.30;;
70216;SDS011;65567;55.684;37.570;2023-05-16T12:29:00;8.75;;;1.38;;
70216;SDS011;65567;55.684;37.570;2023-05-16T12:31:28;4.68;;;1.00;;
70216;SDS011;65567;55.684;37.570;2023-05-16T12:33:57;4.40;;;0.93;;
70216;SDS011;65567;55.684;37.570;2023-05-16T12:36:23;3.60;;;0.60;;
70216;SDS011;65567;55.684;37.570;2023-05-16T12:38:52;7.38;;;1.17;;
70216;SDS011;65567;55.684;37.570;2023-05-16T12:41:18;18.08;;;2.03;;
70216;SDS011;65567;55.684;37.570;2023-05-16T12:43:46;5.93;;;1.50;;
70216;SDS011;65567;55.684;37.570;2023-05-16T12:46:13;6.65;;;0.75;;
70216;SDS011;65567;55.684;37.570;2023-05-16T12:48:40;1.58;;;0.60;;
70216;SDS011;65567;55.684;37.570;2023-05-16T12:51:15;3.58;;;0.85;;
70216;SDS011;65567;55.684;37.570;2023-05-16T12:53:45;11.05;;;1.45;;
70216;SDS011;65567;55.684;37.570;2023-05-16T12:56:13;5.93;;;0.80;;
70216;SDS011;65567;55.684;37.570;2023-05-16T12:58:40;2.03;;;0.65;;
70216;SDS011;65567;55.684;37.570;2023-05-16T13:01:07;6.43;;;1.23;;
70216;SDS011;65567;55.684;37.570;2023-05-16T13:03:33;11.77;;;1.30;;
70216;SDS011;65567;55.684;37.570;2023-05-16T13:06:00;5.25;;;1.10;;
70216;SDS011;65567;55.684;37.570;2023-05-16T13:08:28;6.65;;;0.77;;
70216;SDS011;65567;55.684;37.570;2023-05-16T13:10:54;8.65;;;1.00;;
70216;SDS011;65567;55.684;37.570;2023-05-16T13:13:20;3.42;;;0.70;;
70216;SDS011;65567;55.684;37.570;2023-05-16T13:15:46;3.97;;;0.85;;
70216;SDS011;65567;55.684;37.570;2023-05-16T13:18:12;6.38;;;1.25;;
70216;SDS011;65567;55.684;37.570;2023-05-16T13:20:39;2.28;;;0.70;;
70216;SDS011;65567;55.684;37.570;2023-05-16T13:23:05;5.68;;;0.95;;
70216;SDS011;65567;55.684;37.570;2023-05-16T13:25:31;5.45;;;0.80;;
70216;SDS011;65567;55.684;37.570;2023-05-16T13:27:58;6.93;;;1.33;;
70216;SDS011;65567;55.684;37.570;2023-05-16T13:30:24;4.10;;;0.52;;
70216;SDS011;65567;55.684;37.570;2023-05-16T13:32:50;4.72;;;1.05;;
70216;SDS011;65567;55.684;37.570;2023-05-16T13:35:19;5.72;;;0.90;;
70216;SDS011;65567;55.684;37.570;2023-05-16T13:37:45;15.82;;;2.30;;
70216;SDS011;65567;55.684;37.570;2023-05-16T13:40:11;3.72;;;0.63;;
70216;SDS011;65567;55.684;37.570;2023-05-16T13:42:37;2.70;;;1.00;;
70216;SDS011;65567;55.684;37.570;2023-05-16T13:45:03;8.52;;;0.90;;
70216;SDS011;65567;55.684;37.570;2023-05-16T13:47:30;3.40;;;0.60;;
70216;SDS011;65567;55.684;37.570;2023-05-16T13:49:57;6.00;;;0.90;;
70216;SDS011;65567;55.684;37.570;2023-05-16T13:52:23;2.70;;;0.60;;
70216;SDS011;65567;55.684;37.570;2023-05-16T13:54:50;1.92;;;0.57;;
70216;SDS011;65567;55.684;37.570;2023-05-16T13:57:16;3.03;;;0.63;;
70216;SDS011;65567;55.684;37.570;2023-05-16T13:59:41;7.32;;;1.40;;
70216;SDS011;65567;55.684;37.570;2023-05-16T14:02:07;1.80;;;0.77;;
70216;SDS011;65567;55.684;37.570;2023-05-16T14:04:33;4.43;;;0.70;;
70216;SDS011;65567;55.684;37.570;2023-05-16T14:06:59;8.45;;;1.02;;
70216;SDS011;65567;55.684;37.570;2023-05-16T14:09:25;4.32;;;1.08;;
70216;SDS011;65567;55.684;37.570;2023-05-16T14:11:50;10.05;;;1.45;;
70216;SDS011;65567;55.684;37.570;2023-05-16T14:14:16;5.82;;;0.80;;
70216;SDS011;65567;55.684;37.570;2023-05-16T14:16:42;5.53;;;0.98;;
70216;SDS011;65567;55.684;37.570;2023-05-16T14:19:10;7.18;;;1.10;;
70216;SDS011;65567;55.684;37.570;2023-05-16T14:21:36;10.18;;;1.42;;
70216;SDS011;65567;55.684;37.570;2023-05-16T14:24:02;1.65;;;0.70;;
70216;SDS011;65567;55.684;37.570;2023-05-16T14:26:28;11.88;;;1.20;;
70216;SDS011;65567;55.684;37.570;2023-05-16T14:28:56;2.30;;;0.60;;
70216;SDS011;65567;55.684;37.570;2023-05-16T14:31:22;9.52;;;1.13;;
70216;SDS011;65567;55.684;37.570;2023-05-16T14:33:47;5.82;;;0.80;;
70216;SDS011;65567;55.684;37.570;2023-05-16T14:36:23;6.90;;;1.27;;
70216;SDS011;65567;55.684;37.570;2023-05-16T14:38:49;7.68;;;1.45;;
70216;SDS011;65567;55.684;37.570;2023-05-16T14:41:15;11.80;;;2.65;;
70216;SDS011;65567;55.684;37.570;2023-05-16T14:43:41;6.43;;;1.63;;
70216;SDS011;65567;55.684;37.570;2023-05-16T14:46:06;5.50;;;0.90;;
70216;SDS011;65567;55.684;37.570;2023-05-16T14:48:32;5.03;;;0.80;;
70216;SDS011;65567;55.684;37.570;2023-05-16T14:50:58;2.22;;;0.85;;
70216;SDS011;65567;55.684;37.570;2023-05-16T14:53:24;4.50;;;1.00;;
70216;SDS011;65567;55.684;37.570;2023-05-16T14:55:50;5.93;;;1.00;;
70216;SDS011;65567;55.684;37.570;2023-05-16T14:58:16;4.68;;;1.00;;
70216;SDS011;65567;55.684;37.570;2023-05-16T15:00:42;20.08;;;3.65;;
70216;SDS011;65567;55.684;37.570;2023-05-16T15:03:08;10.18;;;1.85;;
70216;SDS011;65567;55.684;37.570;2023-05-16T15:05:33;4.40;;;0.85;;
70216;SDS011;65567;55.684;37.570;2023-05-16T15:08:00;2.55;;;1.00;;